地図

経路データ

SID SEASON NUMBER BASIN SUBBASIN NAME ISO_TIME NATURE LAT LON WMO_WIND WMO_PRES WMO_AGENCY TRACK_TYPE DIST2LAND LANDFALL IFLAG USA_AGENCY USA_ATCF_ID USA_LAT USA_LON USA_RECORD USA_STATUS USA_WIND USA_PRES USA_SSHS USA_R34_NE USA_R34_SE USA_R34_SW USA_R34_NW USA_R50_NE USA_R50_SE USA_R50_SW USA_R50_NW USA_R64_NE USA_R64_SE USA_R64_SW USA_R64_NW USA_POCI USA_ROCI USA_RMW USA_EYE TOKYO_LAT TOKYO_LON TOKYO_GRADE TOKYO_WIND TOKYO_PRES TOKYO_R50_DIR TOKYO_R50_LONG TOKYO_R50_SHORT TOKYO_R30_DIR TOKYO_R30_LONG TOKYO_R30_SHORT TOKYO_LAND CMA_LAT CMA_LON CMA_CAT CMA_WIND CMA_PRES HKO_LAT HKO_LON HKO_CAT HKO_WIND HKO_PRES NEWDELHI_LAT NEWDELHI_LON NEWDELHI_GRADE NEWDELHI_WIND NEWDELHI_PRES NEWDELHI_CI NEWDELHI_DP NEWDELHI_POCI REUNION_LAT REUNION_LON REUNION_TYPE REUNION_WIND REUNION_PRES REUNION_TNUM REUNION_CI REUNION_RMW REUNION_R34_NE REUNION_R34_SE REUNION_R34_SW REUNION_R34_NW REUNION_R50_NE REUNION_R50_SE REUNION_R50_SW REUNION_R50_NW REUNION_R64_NE REUNION_R64_SE REUNION_R64_SW REUNION_R64_NW BOM_LAT BOM_LON BOM_TYPE BOM_WIND BOM_PRES BOM_TNUM BOM_CI BOM_RMW BOM_R34_NE BOM_R34_SE BOM_R34_SW BOM_R34_NW BOM_R50_NE BOM_R50_SE BOM_R50_SW BOM_R50_NW BOM_R64_NE BOM_R64_SE BOM_R64_SW BOM_R64_NW BOM_ROCI BOM_POCI BOM_EYE BOM_POS_METHOD BOM_PRES_METHOD NADI_LAT NADI_LON NADI_CAT NADI_WIND NADI_PRES WELLINGTON_LAT WELLINGTON_LON WELLINGTON_WIND WELLINGTON_PRES DS824_LAT DS824_LON DS824_STAGE DS824_WIND DS824_PRES TD9636_LAT TD9636_LON TD9636_STAGE TD9636_WIND TD9636_PRES TD9635_LAT TD9635_LON TD9635_WIND TD9635_PRES TD9635_ROCI NEUMANN_LAT NEUMANN_LON NEUMANN_CLASS NEUMANN_WIND NEUMANN_PRES MLC_LAT MLC_LON MLC_CLASS MLC_WIND MLC_PRES USA_GUST BOM_GUST BOM_GUST_PER REUNION_GUST REUNION_GUST_PER USA_SEAHGT USA_SEARAD_NE USA_SEARAD_SE USA_SEARAD_SW USA_SEARAD_NW STORM_SPEED STORM_DIR
1918245N25303 1918 56 NA NA NOT_NAMED 1918-09-02 00:00:00 TS 24.6000 -57.0000 40 hurdat_atl main 1127 1101 O_____________ hurdat_atl AL051918 24.6000 -57.0000 TS 40 0 8 285
1918245N25303 1918 56 NA NA NOT_NAMED 1918-09-02 03:00:00 TS 24.7002 -57.4049 main 1101 1077 P_____________ AL051918 24.7002 -57.4049 TS 42 0 8 285
1918245N25303 1918 56 NA NA NOT_NAMED 1918-09-02 06:00:00 TS 24.8000 -57.8000 45 hurdat_atl main 1077 1054 O_____________ hurdat_atl AL051918 24.8000 -57.8000 TS 45 0 7 286
1918245N25303 1918 56 NA NA NOT_NAMED 1918-09-02 09:00:00 TS 24.9000 -58.1725 main 1054 1039 P_____________ AL051918 24.9000 -58.1725 TS 47 0 7 287
1918245N25303 1918 56 NA NA NOT_NAMED 1918-09-02 12:00:00 TS 25.0000 -58.5000 50 hurdat_atl main 1039 1026 O_____________ hurdat_atl AL051918 25.0000 -58.5000 TS 50 0 6 290
1918245N25303 1918 56 NA NA NOT_NAMED 1918-09-02 15:00:00 TS 25.0999 -58.7651 main 1026 1019 P_____________ AL051918 25.0999 -58.7651 TS 55 0 5 294
1918245N25303 1918 56 NA NA NOT_NAMED 1918-09-02 18:00:00 TS 25.2000 -59.0000 60 hurdat_atl main 1020 1013 O_____________ hurdat_atl AL051918 25.2000 -59.0000 TS 60 0 5 294
1918245N25303 1918 56 NA NA NOT_NAMED 1918-09-02 21:00:00 TS 25.2925 -59.2501 main 1008 1001 P_____________ AL051918 25.2925 -59.2501 TS 62 0 5 294
1918245N25303 1918 56 NA NA NOT_NAMED 1918-09-03 00:00:00 TS 25.4000 -59.5000 65 hurdat_atl main 1003 997 O_____________ hurdat_atl AL051918 25.4000 -59.5000 HU 65 1 5 299
1918245N25303 1918 56 NA NA NOT_NAMED 1918-09-03 03:00:00 TS 25.5425 -59.7500 main 993 993 P_____________ AL051918 25.5425 -59.7500 HU 67 1 5 304
1918245N25303 1918 56 NA NA NOT_NAMED 1918-09-03 06:00:00 TS 25.7000 -60.0000 70 hurdat_atl main 999 993 O_____________ hurdat_atl AL051918 25.7000 -60.0000 HU 70 1 5 303
1918245N25303 1918 56 NA NA NOT_NAMED 1918-09-03 09:00:00 TS 25.8274 -60.2353 main 996 990 P_____________ AL051918 25.8274 -60.2353 HU 70 1 5 304
1918245N25303 1918 56 NA NA NOT_NAMED 1918-09-03 12:00:00 TS 26.0000 -60.5000 70 hurdat_atl main 998 993 O_____________ hurdat_atl AL051918 26.0000 -60.5000 HU 70 1 7 308
1918245N25303 1918 56 NA NA NOT_NAMED 1918-09-03 15:00:00 TS 26.2400 -60.8279 main 1001 1001 P_____________ AL051918 26.2400 -60.8279 HU 72 1 9 314
1918245N25303 1918 56 NA NA NOT_NAMED 1918-09-03 18:00:00 TS 26.6000 -61.2000 75 hurdat_atl main 1021 1021 O_____________ hurdat_atl AL051918 26.6000 -61.2000 HU 75 1 11 322
1918245N25303 1918 56 NA NA NOT_NAMED 1918-09-03 21:00:00 TS 27.1124 -61.5851 main 1055 1055 P_____________ AL051918 27.1124 -61.5851 HU 75 1 13 327
1918245N25303 1918 56 NA NA NOT_NAMED 1918-09-04 00:00:00 TS 27.7000 -62.0000 75 hurdat_atl main 1102 1102 O_____________ hurdat_atl AL051918 27.7000 -62.0000 HU 75 1 14 326
1918245N25303 1918 56 NA NA NOT_NAMED 1918-09-04 03:00:00 TS 28.2574 -62.4428 main 1153 1150 P_____________ AL051918 28.2574 -62.4428 HU 77 1 14 324
1918245N25303 1918 56 NA NA NOT_NAMED 1918-09-04 06:00:00 TS 28.8000 -62.9000 80 hurdat_atl main 1194 1194 O_____________ hurdat_atl AL051918 28.8000 -62.9000 HU 80 1 13 323
1918245N25303 1918 56 NA NA NOT_NAMED 1918-09-04 09:00:00 TS 29.3074 -63.3579 main 1238 1238 P_____________ AL051918 29.3074 -63.3579 HU 80 1 13 322
1918245N25303 1918 56 NA NA NOT_NAMED 1918-09-04 12:00:00 TS 29.8000 -63.8000 80 hurdat_atl main 1278 1215 O_____________ hurdat_atl AL051918 29.8000 -63.8000 HU 80 1 12 323
1918245N25303 1918 56 NA NA NOT_NAMED 1918-09-04 15:00:00 TS 30.2999 -64.2154 main 1215 1153 P_____________ AL051918 30.2999 -64.2154 HU 82 1 12 325
1918245N25303 1918 56 NA NA NOT_NAMED 1918-09-04 18:00:00 TS 30.8000 -64.6000 85 hurdat_atl main 1153 1092 O_____________ hurdat_atl AL051918 30.8000 -64.6000 HU 85 2 12 327
1918245N25303 1918 56 NA NA NOT_NAMED 1918-09-04 21:00:00 TS 31.2999 -64.9727 main 1092 1040 P_____________ AL051918 31.2999 -64.9727 HU 87 2 12 329
1918245N25303 1918 56 NA NA NOT_NAMED 1918-09-05 00:00:00 TS 31.8000 -65.3000 90 hurdat_atl main 1040 989 O_____________ hurdat_atl AL051918 31.8000 -65.3000 HU 90 2 11 333
1918245N25303 1918 56 NA NA NOT_NAMED 1918-09-05 03:00:00 TS 32.2998 -65.5655 main 989 949 P_____________ AL051918 32.2998 -65.5655 HU 92 2 11 337
1918245N25303 1918 56 NA NA NOT_NAMED 1918-09-05 06:00:00 TS 32.8000 -65.8000 95 hurdat_atl main 949 911 O_____________ hurdat_atl AL051918 32.8000 -65.8000 HU 95 2 11 338
1918245N25303 1918 56 NA NA NOT_NAMED 1918-09-05 09:00:00 TS 33.2999 -66.0503 main 902 866 P_____________ AL051918 33.2999 -66.0503 HU 95 2 11 337
1918245N25303 1918 56 NA NA NOT_NAMED 1918-09-05 12:00:00 TS 33.8000 -66.3000 95 hurdat_atl main 866 834 O_____________ hurdat_atl AL051918 33.8000 -66.3000 HU 95 2 11 337
1918245N25303 1918 56 NA NA NOT_NAMED 1918-09-05 15:00:00 TS 34.3000 -66.5577 main 825 795 P_____________ AL051918 34.3000 -66.5577 HU 95 2 11 338
1918245N25303 1918 56 NA NA NOT_NAMED 1918-09-05 18:00:00 TS 34.8000 -66.8000 95 hurdat_atl main 795 758 O_____________ hurdat_atl AL051918 34.8000 -66.8000 HU 95 2 11 339
1918245N25303 1918 56 NA NA NOT_NAMED 1918-09-05 21:00:00 TS 35.3000 -67.0300 main 758 699 P_____________ AL051918 35.3000 -67.0300 HU 92 2 11 342
1918245N25303 1918 56 NA NA NOT_NAMED 1918-09-06 00:00:00 TS 35.8000 -67.2000 90 hurdat_atl main 699 644 O_____________ hurdat_atl AL051918 35.8000 -67.2000 HU 90 2 10 348
1918245N25303 1918 56 NA NA NOT_NAMED 1918-09-06 03:00:00 TS 36.2849 -67.2877 main 644 592 P_____________ AL051918 36.2849 -67.2877 HU 85 2 10 355
1918245N25303 1918 56 NA NA NOT_NAMED 1918-09-06 06:00:00 TS 36.8000 -67.3000 80 hurdat_atl main 592 541 O_____________ hurdat_atl AL051918 36.8000 -67.3000 HU 80 1 11 0
1918245N25303 1918 56 NA NA NOT_NAMED 1918-09-06 09:00:00 TS 37.3473 -67.3087 main 541 475 P_____________ AL051918 37.3473 -67.3087 HU 75 1 12 4
1918245N25303 1918 56 NA NA NOT_NAMED 1918-09-06 12:00:00 TS 38.0000 -67.2000 70 hurdat_atl main 475 419 O_____________ hurdat_atl AL051918 38.0000 -67.2000 HU 70 1 14 12
1918245N25303 1918 56 NA NA NOT_NAMED 1918-09-06 15:00:00 TS 38.7296 -66.9513 main 419 369 P_____________ AL051918 38.7296 -66.9513 HU 65 1 18 18
1918245N25303 1918 56 NA NA NOT_NAMED 1918-09-06 18:00:00 TS 39.7000 -66.5000 60 hurdat_atl main 368 289 O_____________ hurdat_atl AL051918 39.7000 -66.5000 TS 60 0 24 21
1918245N25303 1918 56 NA NA NOT_NAMED 1918-09-06 21:00:00 TS 41.0025 -65.8463 main 278 123 P_____________ AL051918 41.0025 -65.8463 TS 55 0 30 22
1918245N25303 1918 56 NA NA NOT_NAMED 1918-09-07 00:00:00 ET 42.5000 -65.0000 50 hurdat_atl main 113 32 O_____________ hurdat_atl AL051918 42.5000 -65.0000 EX 50 -4 33 23
1918245N25303 1918 56 NA NA NOT_NAMED 1918-09-07 03:00:00 ET 44.0589 -64.0750 main 23 0 P_____________ AL051918 44.0589 -64.0750 EX 47 -4 33 26
1918245N25303 1918 56 NA NA NOT_NAMED 1918-09-07 06:00:00 ET 45.5000 -63.0000 45 hurdat_atl main 0 0 O_____________ hurdat_atl AL051918 45.5000 -63.0000 EX 45 -4 30 32
1918245N25303 1918 56 NA NA NOT_NAMED 1918-09-07 09:00:00 ET 46.6495 -61.7862 main 31 31 P_____________ AL051918 46.6495 -61.7862 EX 42 -4 26 41
1918245N25303 1918 56 NA NA NOT_NAMED 1918-09-07 12:00:00 ET 47.5000 -60.5000 40 hurdat_atl main 66 11 O_____________ hurdat_atl AL051918 47.5000 -60.5000 EX 40 -4 23 50
1918245N25303 1918 56 NA NA NOT_NAMED 1918-09-07 15:00:00 ET 48.1205 -59.1719 main 11 0 P_____________ AL051918 48.1205 -59.1719 EX 40 -4 19 59
1918245N25303 1918 56 NA NA NOT_NAMED 1918-09-07 18:00:00 ET 48.5000 -58.0000 40 hurdat_atl main 0 0 O_____________ hurdat_atl AL051918 48.5000 -58.0000 EX 40 -4 15 64
1918245N25303 1918 56 NA NA NOT_NAMED 1918-09-07 21:00:00 ET 48.7657 -57.1344 main 0 0 P_____________ AL051918 48.7657 -57.1344 EX 40 -4 11 68
1918245N25303 1918 56 NA NA NOT_NAMED 1918-09-08 00:00:00 ET 48.9000 -56.5000 40 hurdat_atl main 0 0 O_____________ hurdat_atl AL051918 48.9000 -56.5000 EX 40 -4 8 75
1918245N25303 1918 56 NA NA NOT_NAMED 1918-09-08 03:00:00 ET 48.9796 -55.9241 main 0 0 P_____________ AL051918 48.9796 -55.9241 EX 37 -4 7 81
1918245N25303 1918 56 NA NA NOT_NAMED 1918-09-08 06:00:00 ET 49.0000 -55.5000 35 hurdat_atl main 0 0 O_____________ hurdat_atl AL051918 49.0000 -55.5000 EX 35 -4 5 87
1918245N25303 1918 56 NA NA NOT_NAMED 1918-09-08 09:00:00 ET 49.0026 -55.2128 main 0 0 P_____________ AL051918 49.0026 -55.2128 EX 32 -4 3 90
1918245N25303 1918 56 NA NA NOT_NAMED 1918-09-08 12:00:00 ET 49.0000 -55.0000 30 hurdat_atl main 0 O_____________ hurdat_atl AL051918 49.0000 -55.0000 EX 30 -4 3 91

IBTrACS Databaseについて

本データベースは、米国NOAAが公開する1842年以降の世界の熱帯低気圧のベストトラックデータアーカイブInternational Best Track Archive for Climate Stewardship (IBTrACS)を、ウェブで閲覧しやすい形式に変換したものです。

最終更新日:2021-11-26